Time;durP1;ratioP1;P1;durP2;ratioP2;P2;SDS_P1;SDS_P2;PMS_P1;PMS_P2;Temp;Humidity;BMP_temperature;BMP_pressure;BME280_temperature;BME280_humidity;BME280_pressure;Samples;Min_cycle;Max_cycle;Signal;HPM_P1;HPM_P2
2023/12/04 00:01:47;;;;;;;1.50;1.30;;;;;;;5.67;100.00;103259.03;4989551;28;20041;-74
2023/12/04 00:04:13;;;;;;;1.60;1.23;;;;;;;5.46;100.00;103250.50;4991395;28;20034;-71
2023/12/04 00:06:40;;;;;;;2.63;1.15;;;;;;;5.89;100.00;103339.16;4991337;28;20493;-72
2023/12/04 00:09:06;;;;;;;1.40;1.17;;;;;;;5.86;100.00;103332.28;4991288;28;20031;-72
2023/12/04 00:11:32;;;;;;;1.52;1.20;;;;;;;5.87;100.00;103338.22;4981705;28;20572;-71
2023/12/04 00:13:58;;;;;;;1.70;1.42;;;;;;;5.24;100.00;103213.34;4989912;28;21886;-72
2023/12/04 00:16:23;;;;;;;1.80;1.08;;;;;;;5.40;100.00;103287.19;4989395;28;20499;-71
2023/12/04 00:18:49;;;;;;;1.70;1.10;;;;;;;5.89;100.00;103365.28;4990245;28;20054;-72
2023/12/04 00:21:14;;;;;;;1.58;0.90;;;;;;;4.66;100.00;103210.53;4991160;28;20030;-72
2023/12/04 00:23:40;;;;;;;1.38;1.15;;;;;;;5.23;100.00;103273.78;4990307;28;20053;-72
2023/12/04 00:26:06;;;;;;;2.15;1.00;;;;;;;5.12;100.00;103280.00;4989883;28;20062;-70
2023/12/04 00:28:31;;;;;;;1.10;0.88;;;;;;;5.51;100.00;103337.34;4973171;28;20026;-72
2023/12/04 00:31:00;;;;;;;1.85;1.17;;;;;;;5.58;100.00;103363.75;4990195;28;20121;-71
2023/12/04 00:33:25;;;;;;;1.65;1.30;;;;;;;5.33;100.00;103310.41;4988529;28;20034;-71
2023/12/04 00:35:51;;;;;;;2.35;1.40;;;;;;;4.70;100.00;103233.44;4973012;28;20029;-72
2023/12/04 00:38:16;;;;;;;2.17;1.52;;;;;;;4.89;100.00;103271.31;4990477;28;20041;-71
2023/12/04 00:40:42;;;;;;;1.90;1.40;;;;;;;5.36;100.00;103292.88;4990783;28;20030;-71
2023/12/04 00:43:07;;;;;;;2.63;1.20;;;;;;;4.91;100.00;103239.50;4972899;28;20543;-72
2023/12/04 00:45:33;;;;;;;2.50;1.08;;;;;;;5.53;100.00;103329.84;4989957;28;20035;-70
2023/12/04 00:47:58;;;;;;;2.13;1.55;;;;;;;5.69;100.00;103334.81;4989817;28;20484;-72
2023/12/04 00:50:23;;;;;;;2.30;1.20;;;;;;;5.45;100.00;103326.13;4972793;28;20022;-70
2023/12/04 00:52:49;;;;;;;3.17;2.15;;;;;;;5.38;100.00;103341.75;4972847;28;20386;-72
2023/12/04 00:55:14;;;;;;;2.25;1.60;;;;;;;5.35;100.00;103339.09;4990719;28;20105;-72
2023/12/04 00:57:40;;;;;;;2.42;2.00;;;;;;;4.56;100.00;103262.13;4990121;28;20108;-70
2023/12/04 01:00:06;;;;;;;2.92;2.20;;;;;;;4.57;100.00;103261.34;4989395;28;20029;-72
2023/12/04 01:02:32;;;;;;;2.78;2.47;;;;;;;4.94;100.00;103335.44;4972453;28;20038;-72
2023/12/04 01:04:57;;;;;;;3.75;2.50;;;;;;;4.90;100.00;103331.03;4972801;28;20046;-71
2023/12/04 01:07:23;;;;;;;4.47;3.13;;;;;;;4.33;100.00;103223.22;4972472;28;20117;-70
2023/12/04 01:09:48;;;;;;;5.03;3.50;;;;;;;4.62;100.00;103299.34;4989603;28;20053;-71
2023/12/04 01:12:14;;;;;;;4.25;3.20;;;;;;;4.22;100.00;103251.16;4990144;28;20023;-73
2023/12/04 01:14:40;;;;;;;4.55;3.20;;;;;;;4.91;100.00;103339.47;4990349;28;20037;-72
2023/12/04 01:17:06;;;;;;;4.80;3.63;;;;;;;4.63;100.00;103275.91;4989148;28;20034;-71
2023/12/04 01:19:31;;;;;;;4.93;3.50;;;;;;;4.82;100.00;103314.69;4989739;28;20046;-72
2023/12/04 01:21:57;;;;;;;6.43;3.75;;;;;;;4.39;100.00;103252.88;4971032;28;20124;-70
2023/12/04 01:24:22;;;;;;;4.13;3.70;;;;;;;4.87;100.00;103293.06;4989869;28;20053;-70
2023/12/04 01:26:48;;;;;;;5.05;3.97;;;;;;;4.78;100.00;103259.88;4988131;28;20022;-71
2023/12/04 01:29:13;;;;;;;5.72;4.15;;;;;;;4.43;100.00;103246.34;4972423;28;20041;-74
2023/12/04 01:31:39;;;;;;;6.22;4.25;;;;;;;4.53;100.00;103314.88;4989465;28;20042;-72
2023/12/04 01:34:04;;;;;;;5.85;4.40;;;;;;;4.38;100.00;103239.41;4988972;28;20038;-69
2023/12/04 01:36:30;;;;;;;5.53;4.32;;;;;;;4.93;100.00;103316.06;4972311;28;20026;-71
2023/12/04 01:38:55;;;;;;;6.82;4.80;;;;;;;4.27;100.00;103227.94;4989244;28;20045;-71
2023/12/04 01:41:21;;;;;;;5.60;4.50;;;;;;;4.79;100.00;103304.47;4989322;28;20088;-72
2023/12/04 01:43:46;;;;;;;6.05;4.30;;;;;;;4.60;100.00;103301.81;4988171;28;20042;-71
2023/12/04 01:46:15;;;;;;;6.20;4.57;;;;;;;4.26;100.00;103173.31;4988980;28;20035;-73
2023/12/04 01:48:41;;;;;;;6.10;4.43;;;;;;;4.46;100.00;103231.38;4989108;28;20528;-74
2023/12/04 01:51:09;;;;;;;6.63;4.93;;;;;;;4.53;100.00;103236.78;4971816;28;20113;-72
2023/12/04 01:53:38;;;;;;;6.43;5.10;;;;;;;4.70;100.00;103230.03;4971473;28;20030;-71
2023/12/04 01:56:04;;;;;;;5.97;4.63;;;;;;;4.54;100.00;103202.38;4989045;28;20386;-71
2023/12/04 01:58:29;;;;;;;6.45;4.60;;;;;;;4.69;100.00;103282.13;4971575;28;20535;-71
2023/12/04 02:00:55;;;;;;;6.28;4.78;;;;;;;4.56;100.00;103225.97;4987207;28;20062;-72
2023/12/04 02:03:21;;;;;;;6.15;4.90;;;;;;;4.49;100.00;103224.84;4988794;28;20023;-71
2023/12/04 02:05:47;;;;;;;5.78;4.60;;;;;;;4.41;100.00;103190.84;4971031;28;20036;-71
2023/12/04 02:08:13;;;;;;;6.30;5.05;;;;;;;4.83;100.00;103260.09;4987042;28;20104;-71
2023/12/04 02:10:39;;;;;;;6.63;5.13;;;;;;;4.39;100.00;103231.09;4971172;28;20018;-71
2023/12/04 02:13:05;;;;;;;5.43;4.20;;;;;;;4.31;100.00;103223.94;4970639;28;20034;-72
2023/12/04 02:15:30;;;;;;;6.18;4.40;;;;;;;4.52;100.00;103241.72;4970959;28;20428;-71
2023/12/04 02:17:56;;;;;;;5.45;4.47;;;;;;;4.48;100.00;103187.81;4970237;28;20038;-72
2023/12/04 02:20:31;;;;;;;6.68;4.80;;;;;;;4.65;100.00;103241.56;4989150;28;20030;-72
2023/12/04 02:22:56;;;;;;;6.47;5.00;;;;;;;4.67;100.00;103245.03;4987588;28;20042;-72
2023/12/04 02:25:22;;;;;;;6.25;4.65;;;;;;;4.55;100.00;103237.75;4970690;28;20471;-70
2023/12/04 02:27:50;;;;;;;7.60;5.00;;;;;;;4.47;100.00;103235.63;4975943;28;20035;-71
2023/12/04 02:30:19;;;;;;;5.63;4.53;;;;;;;4.01;100.00;103182.09;4988238;28;20038;-71
2023/12/04 02:32:46;;;;;;;6.10;4.93;;;;;;;4.18;100.00;103224.94;4988260;28;20034;-71
2023/12/04 02:35:14;;;;;;;6.07;4.78;;;;;;;4.28;100.00;103221.25;4988518;28;20485;-71
2023/12/04 02:37:41;;;;;;;6.05;4.65;;;;;;;3.89;100.00;103173.94;4970717;28;20050;-71
2023/12/04 02:40:07;;;;;;;5.63;4.63;;;;;;;3.94;100.00;103164.97;4970672;28;20054;-71
2023/12/04 02:42:33;;;;;;;5.93;4.85;;;;;;;4.33;100.00;103230.78;4988166;28;20048;-69
2023/12/04 02:44:59;;;;;;;6.60;4.80;;;;;;;4.20;100.00;103228.41;4988157;28;20501;-71
2023/12/04 02:47:24;;;;;;;6.63;5.28;;;;;;;4.17;100.00;103212.28;4969545;28;20030;-69
2023/12/04 02:49:50;;;;;;;6.45;5.10;;;;;;;4.28;100.00;103222.13;4970100;28;20030;-71
2023/12/04 02:52:16;;;;;;;6.90;5.20;;;;;;;4.20;100.00;103212.44;4987778;28;20042;-70
2023/12/04 02:54:41;;;;;;;7.13;5.18;;;;;;;4.35;100.00;103224.16;4970470;28;20038;-70
2023/12/04 02:57:07;;;;;;;6.95;5.13;;;;;;;4.30;100.00;103232.25;4986441;28;20053;-71
2023/12/04 02:59:33;;;;;;;8.00;5.32;;;;;;;4.33;100.00;103230.78;4987560;28;20138;-71
2023/12/04 03:01:58;;;;;;;7.22;5.68;;;;;;;3.96;100.00;103168.44;4987641;28;20030;-71
2023/12/04 03:04:24;;;;;;;5.82;4.47;;;;;;;4.39;100.00;103236.13;4970210;28;20038;-70
2023/12/04 03:06:49;;;;;;;6.90;4.95;;;;;;;4.15;100.00;103182.00;4988030;28;20030;-71
2023/12/04 03:09:15;;;;;;;7.18;4.85;;;;;;;4.62;100.00;103249.81;4986660;28;20034;-71
2023/12/04 03:11:41;;;;;;;6.10;4.97;;;;;;;4.33;100.00;103230.78;4969631;28;20226;-71
2023/12/04 03:14:07;;;;;;;6.97;5.30;;;;;;;4.20;100.00;103180.56;4987877;28;20034;-72
2023/12/04 03:16:33;;;;;;;7.40;5.45;;;;;;;4.41;100.00;103238.72;4988134;28;20037;-72
2023/12/04 03:18:58;;;;;;;7.82;5.80;;;;;;;3.98;100.00;103142.53;4987805;28;20051;-71
2023/12/04 03:21:24;;;;;;;8.48;5.95;;;;;;;4.46;100.00;103228.88;4970017;28;20523;-71
2023/12/04 03:23:49;;;;;;;7.78;5.63;;;;;;;3.88;100.00;103142.03;4979253;28;20624;-72
2023/12/04 03:26:15;;;;;;;8.20;5.45;;;;;;;4.52;100.00;103221.59;4991790;28;20889;-71
2023/12/04 03:28:41;;;;;;;9.20;5.40;;;;;;;4.30;100.00;103184.41;4974245;28;20046;-71
2023/12/04 03:31:06;;;;;;;5.72;4.78;;;;;;;3.98;100.00;103147.56;4974172;28;20417;-70
2023/12/04 03:33:32;;;;;;;6.80;4.88;;;;;;;4.08;100.00;103166.53;4972957;28;20076;-71
2023/12/04 03:35:59;;;;;;;6.30;4.78;;;;;;;4.54;100.00;103220.88;4973329;28;20041;-70
2023/12/04 03:38:25;;;;;;;6.40;5.10;;;;;;;4.68;100.00;103237.53;4976288;28;20030;-71
2023/12/04 03:40:50;;;;;;;7.05;4.90;;;;;;;4.60;100.00;103233.78;4989955;28;20030;-70
2023/12/04 03:43:17;;;;;;;7.80;5.35;;;;;;;4.64;100.00;103238.16;4989477;28;20065;-70
2023/12/04 03:45:42;;;;;;;7.00;5.47;;;;;;;4.53;100.00;103210.72;4990581;28;20065;-71
2023/12/04 03:48:07;;;;;;;7.63;5.25;;;;;;;4.53;100.00;103216.63;4991000;28;20140;-71
2023/12/04 03:50:33;;;;;;;8.10;6.28;;;;;;;4.62;100.00;103214.56;4990376;28;20052;-68
2023/12/04 03:52:59;;;;;;;8.57;6.65;;;;;;;4.60;100.00;103230.38;4990867;28;20038;-70
2023/12/04 03:55:24;;;;;;;7.95;5.88;;;;;;;4.12;100.00;103143.25;4989925;28;20053;-71
2023/12/04 03:57:50;;;;;;;9.18;5.72;;;;;;;4.52;100.00;103214.91;4990197;28;20031;-71
2023/12/04 04:00:16;;;;;;;8.20;6.07;;;;;;;4.45;100.00;103227.13;4990693;28;20019;-71
2023/12/04 04:02:43;;;;;;;6.32;5.18;;;;;;;4.43;100.00;103203.50;4990307;28;20133;-71
2023/12/04 04:05:09;;;;;;;8.20;5.75;;;;;;;4.13;100.00;103144.97;4972986;28;20053;-71
2023/12/04 04:07:35;;;;;;;7.28;5.63;;;;;;;3.69;100.00;103082.34;4990208;28;20034;-71
2023/12/04 04:10:00;;;;;;;6.63;5.32;;;;;;;4.52;100.00;103198.91;4989297;28;20038;-72
2023/12/04 04:12:29;;;;;;;7.25;4.90;;;;;;;4.04;100.00;103132.78;4989589;28;20030;-72
2023/12/04 04:14:54;;;;;;;6.55;4.88;;;;;;;4.24;100.00;103128.72;4989881;28;20027;-73
2023/12/04 04:17:20;;;;;;;5.78;4.20;;;;;;;3.82;100.00;103101.44;4973388;28;20457;-73
2023/12/04 04:19:45;;;;;;;5.50;4.10;;;;;;;4.07;100.00;103094.31;4990799;28;20046;-74
2023/12/04 04:22:11;;;;;;;5.65;4.07;;;;;;;4.53;100.00;103158.69;4991234;28;20023;-74
2023/12/04 04:24:36;;;;;;;5.40;4.20;;;;;;;4.06;100.00;103072.47;4989838;28;20521;-73
2023/12/04 04:27:02;;;;;;;4.97;3.65;;;;;;;4.35;100.00;103150.25;4990456;28;20054;-75
2023/12/04 04:29:28;;;;;;;6.53;3.80;;;;;;;4.47;100.00;103143.28;4973469;28;20030;-73
2023/12/04 04:31:53;;;;;;;5.55;4.20;;;;;;;4.29;100.00;103069.38;4990105;28;20448;-72
2023/12/04 04:34:21;;;;;;;5.63;4.18;;;;;;;4.24;100.00;103075.84;4989328;28;20493;-71
2023/12/04 04:36:46;;;;;;;5.57;4.28;;;;;;;3.90;100.00;103052.38;4989383;28;20580;-72
2023/12/04 04:39:13;;;;;;;5.93;4.15;;;;;;;4.43;100.00;103093.56;4972456;28;20030;-73
2023/12/04 04:41:39;;;;;;;5.78;4.15;;;;;;;4.41;100.00;103047.28;4971566;28;20543;-73
2023/12/04 04:44:05;;;;;;;5.53;3.97;;;;;;;4.14;100.00;103048.53;4989331;28;20030;-75
2023/12/04 04:46:31;;;;;;;5.38;3.88;;;;;;;4.12;100.00;103052.63;4991049;28;20084;-71
2023/12/04 04:48:56;;;;;;;5.35;4.10;;;;;;;3.95;100.00;103038.34;4989610;28;20476;-73
2023/12/04 04:51:22;;;;;;;5.32;3.78;;;;;;;4.01;100.00;103049.56;4990299;28;20481;-73
2023/12/04 04:53:48;;;;;;;5.05;4.07;;;;;;;4.37;100.00;103101.69;4988077;28;20114;-74
2023/12/04 04:56:14;;;;;;;5.20;4.07;;;;;;;4.71;100.00;103099.09;4989124;28;20088;-74
2023/12/04 04:58:40;;;;;;;5.50;4.10;;;;;;;4.52;100.00;103106.56;4989810;28;20128;-74
2023/12/04 05:01:06;;;;;;;4.93;3.83;;;;;;;4.42;100.00;103088.47;4985869;28;20030;-71
2023/12/04 05:03:31;;;;;;;5.85;3.92;;;;;;;4.04;100.00;103011.97;4972653;28;20030;-73
2023/12/04 05:05:57;;;;;;;4.13;3.50;;;;;;;4.27;100.00;103081.91;4990622;28;20030;-75
2023/12/04 05:08:22;;;;;;;5.50;4.10;;;;;;;4.20;100.00;103021.09;4973216;28;20034;-74
2023/12/04 05:10:48;;;;;;;5.85;4.10;;;;;;;3.60;100.00;102932.66;4989661;28;20030;-73
2023/12/04 05:13:13;;;;;;;6.47;4.70;;;;;;;4.39;100.00;103052.28;4986027;28;20505;-75
2023/12/04 05:15:39;;;;;;;5.43;4.30;;;;;;;4.30;100.00;103051.81;4979282;28;20516;-74
2023/12/04 05:18:04;;;;;;;5.65;4.50;;;;;;;4.10;100.00;102981.19;4989630;28;20034;-74
2023/12/04 05:20:30;;;;;;;5.38;4.28;;;;;;;3.92;100.00;102972.78;4989074;28;20038;-71
2023/12/04 05:22:57;;;;;;;6.10;4.10;;;;;;;4.37;100.00;102980.81;4988531;28;20105;-69
2023/12/04 05:25:22;;;;;;;5.90;3.85;;;;;;;4.24;100.00;102967.56;4988785;28;20874;-71
2023/12/04 05:27:48;;;;;;;5.55;4.10;;;;;;;4.65;100.00;103048.44;4970702;28;20046;-71
2023/12/04 05:30:13;;;;;;;6.50;5.35;;;;;;;4.25;100.00;102966.78;4970675;28;20113;-70
2023/12/04 05:32:39;;;;;;;6.18;3.67;;;;;;;4.30;100.00;102993.03;4988232;28;20042;-71
2023/12/04 05:35:05;;;;;;;5.68;3.90;;;;;;;4.17;100.00;102958.91;4971398;28;20034;-71
2023/12/04 05:37:30;;;;;;;5.43;3.45;;;;;;;4.52;100.00;103027.63;4970097;28;20470;-73
2023/12/04 05:39:56;;;;;;;6.97;4.32;;;;;;;4.33;100.00;102953.78;4988090;28;20108;-76
2023/12/04 05:42:21;;;;;;;6.63;3.90;;;;;;;4.87;100.00;103023.38;4988695;28;20026;-73
2023/12/04 05:44:47;;;;;;;6.88;3.95;;;;;;;5.08;100.00;103009.22;4988643;28;20042;-73
2023/12/04 05:47:12;;;;;;;5.28;4.20;;;;;;;4.77;100.00;103003.63;4970667;28;20026;-73
2023/12/04 05:49:38;;;;;;;5.53;4.40;;;;;;;4.68;100.00;102922.56;4988175;28;20057;-75
2023/12/04 05:52:03;;;;;;;6.07;4.55;;;;;;;4.99;100.00;103018.03;4989379;28;20117;-76
2023/12/04 05:54:30;;;;;;;6.18;4.97;;;;;;;4.13;100.00;102866.41;4955070;28;20042;-75
2023/12/04 05:56:55;;;;;;;7.88;4.93;;;;;;;5.02;100.00;102935.81;4990033;28;20489;-75
2023/12/04 05:59:21;;;;;;;7.38;5.05;;;;;;;4.92;100.00;102985.78;4983312;28;20121;-73
2023/12/04 06:01:46;;;;;;;6.75;4.70;;;;;;;5.01;100.00;102928.22;4988473;28;20038;-75
2023/12/04 06:04:11;;;;;;;4.97;4.13;;;;;;;5.09;100.00;102937.78;4989001;28;20030;-75
2023/12/04 06:06:37;;;;;;;6.10;4.45;;;;;;;5.19;100.00;102999.56;4988889;28;20022;-75
2023/12/04 06:09:08;;;;;;;6.30;4.47;;;;;;;4.76;100.00;103230.34;5113646;27;1545782;-77
2023/12/04 06:11:34;;;;;;;9.25;6.00;;;;;;;4.90;100.00;103272.19;5146195;27;20027;-74
2023/12/04 06:13:59;;;;;;;15.63;9.70;;;;;;;4.40;100.00;103186.59;5127561;27;20492;-76
2023/12/04 06:16:24;;;;;;;11.68;7.80;;;;;;;5.09;100.00;103260.53;5145863;27;20027;-72
2023/12/04 06:18:50;;;;;;;7.47;5.53;;;;;;;5.11;100.00;103251.38;5146300;27;20506;-75
2023/12/04 06:21:16;;;;;;;11.25;8.40;;;;;;;5.25;100.00;103206.63;5146317;27;20042;-74
2023/12/04 06:23:41;;;;;;;12.25;9.75;;;;;;;5.43;100.00;103247.81;5146120;27;20296;-76
2023/12/04 06:26:08;;;;;;;9.88;7.25;;;;;;;5.18;100.00;103197.06;5146523;27;20082;-73
2023/12/04 06:28:34;;;;;;;7.15;4.88;;;;;;;4.93;100.00;103189.16;5146161;27;20061;-75
2023/12/04 06:31:00;;;;;;;7.10;5.00;;;;;;;4.87;100.00;103161.16;5145863;27;20638;-74
2023/12/04 06:33:26;;;;;;;5.57;4.53;;;;;;;5.16;100.00;103204.56;5145737;27;20027;-74
2023/12/04 06:35:51;;;;;;;6.13;4.75;;;;;;;5.13;100.00;103216.19;5127782;27;20026;-76
2023/12/04 06:38:19;;;;;;;7.25;5.32;;;;;;;4.44;100.00;103085.19;5145971;27;20504;-76
2023/12/04 06:40:44;;;;;;;5.60;4.65;;;;;;;4.64;100.00;103132.34;5127603;27;20023;-76
2023/12/04 06:43:10;;;;;;;8.45;5.80;;;;;;;5.03;100.00;103188.81;5127316;27;20054;-75
2023/12/04 06:45:36;;;;;;;7.28;5.13;;;;;;;5.04;100.00;103180.44;5146525;27;20102;-76
2023/12/04 06:48:02;;;;;;;6.75;4.85;;;;;;;5.04;100.00;103185.47;5146238;27;20039;-76
2023/12/04 06:50:27;;;;;;;10.50;6.22;;;;;;;5.42;100.00;103160.34;5145523;27;20030;-75
2023/12/04 06:52:53;;;;;;;7.63;5.55;;;;;;;4.53;100.00;103082.25;5146200;27;20089;-76
2023/12/04 06:55:19;;;;;;;6.90;5.07;;;;;;;4.76;100.00;103081.66;5146729;27;20075;-77
2023/12/04 06:57:44;;;;;;;9.63;6.38;;;;;;;5.38;100.00;103165.16;5145562;27;20031;-73
2023/12/04 07:00:12;;;;;;;7.45;5.13;;;;;;;5.31;100.00;103191.78;5145060;27;20075;-75
2023/12/04 07:02:38;;;;;;;7.93;5.28;;;;;;;4.70;100.00;103071.28;5126468;27;20039;-75
2023/12/04 07:05:04;;;;;;;8.40;6.72;;;;;;;5.72;100.00;103186.94;5145495;27;20027;-74
2023/12/04 07:07:29;;;;;;;8.05;6.20;;;;;;;5.40;100.00;103212.38;5145061;27;20390;-75
2023/12/04 07:09:55;;;;;;;7.05;5.03;;;;;;;4.70;100.00;103124.22;5146149;27;20031;-77
2023/12/04 07:12:21;;;;;;;8.77;6.00;;;;;;;5.27;100.00;103205.91;5127328;27;20031;-76
2023/12/04 07:14:47;;;;;;;7.63;5.53;;;;;;;5.53;100.00;103184.38;5146251;27;20027;-74
2023/12/04 07:17:13;;;;;;;7.80;6.03;;;;;;;4.97;100.00;103102.81;5145710;27;20102;-75
2023/12/04 07:19:41;;;;;;;8.10;5.55;;;;;;;5.53;100.00;103188.53;5118774;27;20027;-75
2023/12/04 07:22:06;;;;;;;9.15;6.10;;;;;;;5.23;100.00;103140.13;5130275;27;20019;-75
2023/12/04 07:24:33;;;;;;;8.98;5.70;;;;;;;5.46;100.00;103200.06;5131315;27;20038;-76
2023/12/04 07:26:59;;;;;;;8.27;5.90;;;;;;;5.04;100.00;103119.94;5131725;27;20020;-75
2023/12/04 07:29:24;;;;;;;6.95;5.20;;;;;;;5.36;100.00;103129.78;5131262;27;20071;-74
2023/12/04 07:31:51;;;;;;;7.05;5.57;;;;;;;5.63;100.00;103204.16;5130996;27;20026;-75
2023/12/04 07:34:16;;;;;;;6.90;5.65;;;;;;;5.54;100.00;103175.16;5131146;27;20031;-72
2023/12/04 07:36:44;;;;;;;7.03;5.38;;;;;;;5.10;100.00;103095.00;5112174;27;20118;-73
2023/12/04 07:39:10;;;;;;;6.80;5.38;;;;;;;5.10;100.00;103064.72;5131249;27;20552;-75
2023/12/04 07:41:36;;;;;;;7.88;6.07;;;;;;;5.54;100.00;103125.56;5130935;27;20114;-74
2023/12/04 07:44:02;;;;;;;8.18;5.57;;;;;;;6.29;100.00;103192.72;5130581;27;20125;-74
2023/12/04 07:46:27;;;;;;;10.65;6.38;;;;;;;6.30;100.00;103199.53;5112491;27;20424;-76
2023/12/04 07:48:53;;;;;;;6.85;5.40;;;;;;;6.38;100.00;103193.13;5130873;27;20023;-74
2023/12/04 07:51:18;;;;;;;6.82;5.10;;;;;;;5.76;100.00;103175.28;5130640;27;20022;-75
2023/12/04 07:53:44;;;;;;;6.57;4.55;;;;;;;5.62;100.00;103121.69;5131016;27;20520;-74
2023/12/04 07:56:11;;;;;;;7.95;5.18;;;;;;;6.09;100.00;103195.31;5130972;27;20507;-76
2023/12/04 07:58:37;;;;;;;6.25;5.07;;;;;;;6.18;100.00;103178.81;5130526;27;20060;-75
2023/12/04 08:01:02;;;;;;;5.10;3.83;;;;;;;5.68;100.00;103164.88;5112230;27;20035;-75
2023/12/04 08:03:28;;;;;;;5.55;4.00;;;;;;;6.02;100.00;103169.72;5112054;27;20536;-74
2023/12/04 08:05:54;;;;;;;6.28;4.32;;;;;;;6.10;100.00;103191.97;5112064;27;20047;-77
2023/12/04 08:08:20;;;;;;;5.85;4.25;;;;;;;6.22;100.00;103186.56;5129846;27;20051;-74
2023/12/04 08:10:47;;;;;;;6.13;4.65;;;;;;;6.16;100.00;103181.25;5130276;27;20033;-75
2023/12/04 08:13:12;;;;;;;5.30;4.47;;;;;;;5.79;100.00;103178.81;5130788;27;20062;-76
2023/12/04 08:15:38;;;;;;;6.93;5.13;;;;;;;6.21;100.00;103189.91;5111972;27;20063;-71
2023/12/04 08:18:04;;;;;;;5.78;4.45;;;;;;;5.70;100.00;103167.47;5110958;27;20031;-76
2023/12/04 08:20:29;;;;;;;6.18;4.70;;;;;;;6.02;100.00;103174.78;5130318;27;20485;-74
2023/12/04 08:22:55;;;;;;;5.53;4.13;;;;;;;5.85;100.00;103128.63;5130657;27;20027;-75
2023/12/04 08:25:20;;;;;;;5.75;3.90;;;;;;;5.72;100.00;103112.84;5130288;27;20027;-74
2023/12/04 08:27:46;;;;;;;7.75;3.88;;;;;;;6.32;100.00;103177.72;5130684;27;20040;-74
2023/12/04 08:30:12;;;;;;;6.53;4.70;;;;;;;6.06;100.00;103116.88;5129543;27;20047;-76
2023/12/04 08:32:37;;;;;;;7.55;4.90;;;;;;;6.21;100.00;103103.13;5129517;27;20035;-76
2023/12/04 08:35:05;;;;;;;6.88;4.68;;;;;;;6.35;100.00;103185.41;5130138;27;20469;-76
2023/12/04 08:37:31;;;;;;;6.63;5.00;;;;;;;6.88;100.00;103168.16;5130282;27;20505;-76
2023/12/04 08:39:56;;;;;;;8.48;4.80;;;;;;;5.91;100.00;103117.91;5130488;27;20031;-76
2023/12/04 08:42:22;;;;;;;7.45;5.40;;;;;;;5.72;100.00;103090.13;5111407;27;20031;-75
2023/12/04 08:44:48;;;;;;;6.13;4.88;;;;;;;6.28;100.00;103188.50;5129708;27;20023;-76
2023/12/04 08:47:13;;;;;;;8.32;5.30;;;;;;;5.98;100.00;103140.94;5129983;27;20039;-76
2023/12/04 08:49:40;;;;;;;7.43;5.50;;;;;;;6.20;100.00;103139.31;5129979;27;20046;-76
2023/12/04 08:52:07;;;;;;;7.45;5.28;;;;;;;6.77;100.00;103146.69;5128842;27;20031;-76
2023/12/04 08:54:33;;;;;;;7.50;5.82;;;;;;;5.63;100.00;103069.53;5129660;27;20039;-76
2023/12/04 08:56:59;;;;;;;6.88;5.05;;;;;;;5.98;100.00;103138.41;5129770;27;20027;-75
2023/12/04 08:59:24;;;;;;;7.43;6.22;;;;;;;6.25;100.00;103181.66;5130103;27;20076;-75
2023/12/04 09:01:50;;;;;;;11.77;9.55;;;;;;;6.01;100.00;103080.47;5130075;27;20023;-75
2023/12/04 09:04:17;;;;;;;14.20;11.43;;;;;;;6.64;100.00;103192.50;5110903;27;20042;-76
2023/12/04 09:06:43;;;;;;;39.80;26.88;;;;;;;6.57;100.00;103170.31;5128243;27;20031;-75
2023/12/04 09:09:08;;;;;;;18.00;13.57;;;;;;;6.44;100.00;103127.69;5128860;27;20050;-76
2023/12/04 09:11:34;;;;;;;9.15;6.72;;;;;;;6.63;100.00;103184.06;5128823;27;20042;-76
2023/12/04 09:14:00;;;;;;;8.35;7.00;;;;;;;6.02;100.00;103130.16;5129078;27;20110;-75
2023/12/04 09:16:25;;;;;;;8.32;6.68;;;;;;;6.42;100.00;103188.25;5128578;27;20508;-77
2023/12/04 09:18:53;;;;;;;6.53;5.45;;;;;;;7.01;100.00;103188.09;5110275;27;20121;-74
2023/12/04 09:21:18;;;;;;;9.15;6.10;;;;;;;7.12;100.00;103216.31;5110661;27;20028;-73
2023/12/04 09:23:49;;;;;;;8.68;6.38;;;;;;;6.82;100.00;103246.31;5129301;27;20027;-74
2023/12/04 09:26:16;;;;;;;12.02;10.05;;;;;;;5.89;100.00;103101.81;5110157;27;20076;-73
2023/12/04 09:28:41;;;;;;;10.43;8.35;;;;;;;6.47;100.00;103140.41;5128908;27;20042;-73
2023/12/04 09:31:09;;;;;;;8.00;6.03;;;;;;;6.45;100.00;103212.78;5128476;27;20035;-72
2023/12/04 09:33:35;;;;;;;10.60;7.28;;;;;;;7.08;100.00;103186.63;5128368;27;20035;-73
2023/12/04 09:36:01;;;;;;;17.33;10.63;;;;;;;7.21;100.00;103187.16;5128065;27;20038;-73
2023/12/04 09:38:27;;;;;;;26.50;15.20;;;;;;;6.64;100.00;103120.06;5110380;27;20412;-74
2023/12/04 09:40:54;;;;;;;21.00;11.45;;;;;;;6.14;100.00;103140.78;5128359;27;20023;-74
2023/12/04 09:43:20;;;;;;;10.35;8.40;;;;;;;6.79;100.00;103195.66;5128987;27;20023;-76
2023/12/04 09:45:46;;;;;;;9.95;7.95;;;;;;;6.36;100.00;103161.88;5128296;27;20046;-73
2023/12/04 09:48:11;;;;;;;11.30;8.05;;;;;;;6.99;100.00;103220.06;5128302;27;20035;-74
2023/12/04 09:50:38;;;;;;;60.42;34.28;;;;;;;7.31;100.00;103213.69;5110434;27;20030;-74
2023/12/04 09:53:09;;;;;;;38.28;22.02;;;;;;;7.18;100.00;103234.25;5129100;27;20034;-76
2023/12/04 09:55:35;;;;;;;12.30;9.55;;;;;;;6.89;100.00;103208.69;5109552;27;20031;-75
2023/12/04 09:58:01;;;;;;;13.13;10.18;;;;;;;7.12;100.00;103224.78;5110828;28;20039;-74
2023/12/04 10:00:27;;;;;;;11.27;9.00;;;;;;;7.01;100.00;103224.34;5109262;27;20500;-76
2023/12/04 10:02:53;;;;;;;11.80;8.90;;;;;;;6.88;100.00;103151.34;5110300;27;20028;-75
2023/12/04 10:05:20;;;;;;;7.97;6.75;;;;;;;6.99;100.00;103248.72;5129249;27;20538;-75
2023/12/04 10:07:46;;;;;;;9.15;7.07;;;;;;;6.93;100.00;103238.34;5109943;28;20501;-75
2023/12/04 10:10:14;;;;;;;9.60;7.50;;;;;;;6.91;100.00;103241.66;5128877;27;20041;-76
2023/12/04 10:12:39;;;;;;;10.13;7.97;;;;;;;6.56;100.00;103234.28;5128986;28;20043;-76
2023/12/04 10:15:10;;;;;;;9.07;7.05;;;;;;;6.58;100.00;103157.72;5128855;27;20057;-75
2023/12/04 10:17:39;;;;;;;8.50;7.07;;;;;;;6.67;100.00;103196.03;5110051;28;20027;-75
2023/12/04 10:20:11;;;;;;;8.60;6.95;;;;;;;5.68;100.00;103172.44;5128224;28;20088;-75
2023/12/04 10:22:40;;;;;;;;;;;;;;;6.83;100.00;103213.50;5129418;28;20027;-80
2023/12/04 10:25:20;;;;;;;11.73;8.98;;;;;;;6.57;100.00;103132.41;4804969;27;10001477;-75
2023/12/04 10:27:46;;;;;;;9.55;7.07;;;;;;;6.57;100.00;103166.13;5076726;28;20260;-74
2023/12/04 10:30:29;;;;;;;24.58;13.60;;;;;;;7.00;100.00;103227.69;5074860;28;20078;-75
2023/12/04 10:33:00;;;;;;;12.43;9.32;;;;;;;6.54;100.00;103185.34;5075600;28;20083;-76
2023/12/04 10:35:30;;;;;;;10.45;8.98;;;;;;;6.64;100.00;103225.34;5078932;28;20024;-76
2023/12/04 10:37:56;;;;;;;10.57;8.73;;;;;;;6.45;100.00;103155.53;5089377;28;20134;-74
2023/12/04 10:40:26;;;;;;;9.50;7.60;;;;;;;6.84;100.00;103237.13;5088047;28;20103;-76
2023/12/04 10:43:12;;;;;;;11.63;8.68;;;;;;;6.81;100.00;103215.09;5094007;28;20517;-77
2023/12/04 10:45:39;;;;;;;16.20;9.60;;;;;;;6.21;100.00;103164.63;5098429;28;20102;-75
2023/12/04 10:48:06;;;;;;;12.27;9.02;;;;;;;6.81;100.00;103226.91;5090398;28;20114;-73
2023/12/04 10:50:34;;;;;;;11.40;9.15;;;;;;;6.94;100.00;103158.28;5098508;28;20496;-76
2023/12/04 10:53:03;;;;;;;11.30;8.68;;;;;;;6.90;100.00;103152.25;5095941;28;20494;-76
2023/12/04 10:55:30;;;;;;;74.72;41.20;;;;;;;7.66;100.00;103143.28;5099048;28;20024;-80
2023/12/04 10:57:56;;;;;;;23.80;15.95;;;;;;;7.19;100.00;103218.28;5093370;27;20394;-75
2023/12/04 11:00:22;;;;;;;28.00;19.15;;;;;;;6.38;100.00;103160.28;5130632;27;20027;-76
2023/12/04 11:02:49;;;;;;;18.45;12.70;;;;;;;7.03;100.00;103179.72;5132137;27;20106;-75
2023/12/04 11:05:21;;;;;;;20.05;13.10;;;;;;;6.49;100.00;103161.56;5113704;27;20064;-74
2023/12/04 11:08:16;;;;;;;13.02;9.18;;;;;;;7.27;100.00;103234.63;5132248;27;20062;-75
2023/12/04 11:11:02;;;;;;;20.75;14.35;;;;;;;7.01;100.00;103191.47;5111242;27;20043;-74
2023/12/04 11:13:29;;;;;;;19.42;12.95;;;;;;;6.87;100.00;103177.41;5131882;27;20035;-75
2023/12/04 11:16:00;;;;;;;26.15;18.23;;;;;;;7.38;100.00;103224.09;5113884;27;20054;-75
2023/12/04 11:18:29;;;;;;;22.13;14.32;;;;;;;7.05;100.00;103224.47;5132130;27;20026;-74
2023/12/04 11:20:59;;;;;;;10.30;8.35;;;;;;;6.25;100.00;103158.91;5132253;27;20038;-76